Time;durP1;ratioP1;P1;durP2;ratioP2;P2;SDS_P1;SDS_P2;PMS_P1;PMS_P2;Temp;Humidity;BMP_temperature;BMP_pressure;BME280_temperature;BME280_humidity;BME280_pressure;Samples;Min_cycle;Max_cycle;Signal;HPM_P1;HPM_P2
2021/01/12 00:01:29;;;;;;;18.70;14.32;;;;;;;4.68;100.00;100486.22;10175095;29;20096;-74
2021/01/12 00:06:31;;;;;;;20.38;14.98;;;;;;;4.71;100.00;100483.53;10175212;29;20408;-73
2021/01/12 00:11:32;;;;;;;18.98;14.82;;;;;;;4.66;100.00;100469.72;10171973;29;20512;-73
2021/01/12 00:16:33;;;;;;;17.70;13.48;;;;;;;4.66;100.00;100446.25;10174819;29;20051;-73
2021/01/12 00:21:34;;;;;;;21.27;15.90;;;;;;;4.61;100.00;100443.72;10157591;29;20048;-74
2021/01/12 00:26:35;;;;;;;20.77;14.88;;;;;;;4.58;100.00;100431.63;10181453;29;20411;-73
2021/01/12 00:31:38;;;;;;;22.00;16.08;;;;;;;4.53;100.00;100409.13;10181994;29;20040;-73
2021/01/12 00:36:41;;;;;;;20.40;15.73;;;;;;;4.52;100.00;100397.84;10182707;29;20076;-73
2021/01/12 00:41:48;;;;;;;16.98;13.68;;;;;;;4.57;100.00;100396.00;10180907;29;20449;-73
2021/01/12 00:46:49;;;;;;;19.00;14.63;;;;;;;4.56;100.00;100375.16;10211245;29;20528;-73
2021/01/12 00:51:52;;;;;;;18.02;14.32;;;;;;;4.57;100.00;100380.34;10181670;29;20044;-73
2021/01/12 00:56:54;;;;;;;19.50;15.48;;;;;;;4.48;100.00;100353.63;10178498;29;20052;-73
2021/01/12 01:02:04;;;;;;;20.92;15.00;;;;;;;4.50;100.00;100352.69;10180295;29;20074;-74
2021/01/12 01:07:05;;;;;;;19.80;15.00;;;;;;;4.53;100.00;100352.59;10181528;29;20567;-73
2021/01/12 01:12:06;;;;;;;16.58;12.32;;;;;;;4.49;100.00;100331.84;10177237;29;20058;-73
2021/01/12 01:17:08;;;;;;;16.65;13.48;;;;;;;4.55;100.00;100342.13;10181087;29;20104;-73
2021/01/12 01:22:09;;;;;;;17.27;13.25;;;;;;;4.53;100.00;100330.88;10148543;29;20396;-73
2021/01/12 01:27:10;;;;;;;17.77;13.35;;;;;;;4.51;100.00;100317.03;10179595;29;20051;-73
2021/01/12 01:32:12;;;;;;;15.05;12.63;;;;;;;4.53;100.00;100312.63;10155500;29;20052;-73
2021/01/12 01:37:16;;;;;;;15.05;12.88;;;;;;;4.59;100.00;100307.28;10182794;29;20039;-73
2021/01/12 01:42:17;;;;;;;12.80;10.52;;;;;;;4.60;100.00;100303.78;10216533;29;20070;-73
2021/01/12 01:47:19;;;;;;;13.00;11.38;;;;;;;4.58;100.00;100288.16;10162160;29;20051;-73
2021/01/12 01:52:20;;;;;;;14.60;11.10;;;;;;;4.53;100.00;100278.72;10179950;29;20052;-73
2021/01/12 01:57:21;;;;;;;15.25;10.60;;;;;;;4.63;100.00;100292.38;10178869;29;20048;-73
2021/01/12 02:02:22;;;;;;;13.20;9.32;;;;;;;4.60;100.00;100271.59;10162508;29;20473;-73
2021/01/12 02:07:24;;;;;;;12.50;8.70;;;;;;;4.62;100.00;100265.44;10146404;29;20077;-73
2021/01/12 02:12:34;;;;;;;10.13;8.75;;;;;;;4.58;100.00;100264.69;10139032;29;20040;-73
2021/01/12 02:17:35;;;;;;;10.38;7.72;;;;;;;4.64;100.00;100252.34;10139917;29;20381;-73
2021/01/12 02:22:41;;;;;;;8.18;6.97;;;;;;;4.68;100.00;100247.03;10160750;29;20048;-73
2021/01/12 02:27:42;;;;;;;9.43;6.88;;;;;;;4.65;100.00;100239.28;10177351;29;20048;-73
2021/01/12 02:32:43;;;;;;;9.23;6.80;;;;;;;4.65;100.00;100222.75;10178699;29;20059;-74
2021/01/12 02:37:45;;;;;;;7.38;6.35;;;;;;;4.69;100.00;100209.59;10177228;29;20044;-73
2021/01/12 02:42:47;;;;;;;7.40;5.97;;;;;;;4.73;100.00;100202.53;10181096;29;20052;-73
2021/01/12 02:47:48;;;;;;;7.95;6.18;;;;;;;4.72;100.00;100179.97;10163156;29;20067;-74
2021/01/12 02:52:49;;;;;;;8.85;7.25;;;;;;;4.70;100.00;100169.56;10177018;29;20040;-73
2021/01/12 02:57:50;;;;;;;7.70;5.85;;;;;;;4.85;100.00;100182.16;10177045;29;20084;-73
2021/01/12 03:02:51;;;;;;;6.55;5.55;;;;;;;4.89;100.00;100165.53;10176484;29;20052;-73
2021/01/12 03:07:54;;;;;;;6.30;5.15;;;;;;;4.96;100.00;100158.38;10174051;29;20048;-73
2021/01/12 03:12:55;;;;;;;6.35;5.28;;;;;;;4.95;100.00;100143.63;10159563;29;20048;-73
2021/01/12 03:17:56;;;;;;;6.65;5.70;;;;;;;5.02;100.00;100144.31;10176475;29;20052;-73
2021/01/12 03:22:57;;;;;;;6.22;5.10;;;;;;;5.04;100.00;100134.66;10176044;29;20070;-74
2021/01/12 03:27:58;;;;;;;5.53;4.97;;;;;;;5.06;100.00;100138.97;10158067;29;20052;-73
2021/01/12 03:33:00;;;;;;;5.90;4.65;;;;;;;5.08;100.00;100124.13;10175804;29;20043;-73
2021/01/12 03:38:01;;;;;;;6.22;4.80;;;;;;;5.06;100.00;100119.81;10175152;29;20404;-73
2021/01/12 03:43:02;;;;;;;6.10;5.22;;;;;;;5.08;100.00;100110.19;10181488;29;20063;-73
2021/01/12 03:48:03;;;;;;;6.47;5.22;;;;;;;5.08;100.00;100105.84;10214454;29;20040;-73
2021/01/12 03:53:04;;;;;;;5.30;4.43;;;;;;;5.07;100.00;100085.00;10214220;29;20047;-74
2021/01/12 03:58:05;;;;;;;5.70;4.38;;;;;;;5.11;100.00;100078.75;10176956;29;20059;-73
2021/01/12 04:03:06;;;;;;;6.13;4.55;;;;;;;5.13;100.00;100072.59;10174136;29;20096;-74
2021/01/12 04:08:10;;;;;;;5.57;4.50;;;;;;;5.15;100.00;100051.66;10174770;29;20052;-73
2021/01/12 04:13:11;;;;;;;6.07;4.40;;;;;;;5.14;100.00;100057.78;10181769;29;20060;-74
2021/01/12 04:18:12;;;;;;;5.20;4.05;;;;;;;5.17;100.00;100052.47;10174262;29;20044;-73
2021/01/12 04:23:13;;;;;;;8.40;4.78;;;;;;;5.17;100.00;100057.72;10177986;29;20051;-74
2021/01/12 04:28:14;;;;;;;4.88;4.18;;;;;;;5.17;100.00;100042.03;10179446;29;20055;-73
2021/01/12 04:33:16;;;;;;;6.22;4.53;;;;;;;5.19;100.00;100046.28;10173937;29;20040;-73
2021/01/12 04:38:17;;;;;;;5.40;4.10;;;;;;;5.20;100.00;100041.94;10174311;29;20048;-73
2021/01/12 04:43:18;;;;;;;5.50;4.38;;;;;;;5.18;100.00;100028.09;10173715;29;20059;-73
2021/01/12 04:48:19;;;;;;;6.72;4.45;;;;;;;5.14;100.00;100029.94;10173015;29;20052;-74
2021/01/12 04:53:20;;;;;;;5.38;4.07;;;;;;;5.20;100.00;100027.13;10170216;29;20048;-74
2021/01/12 04:58:21;;;;;;;5.05;4.10;;;;;;;5.23;100.00;100029.66;10150203;29;20052;-74
2021/01/12 05:03:23;;;;;;;6.28;4.30;;;;;;;5.19;100.00;100014.97;10133237;29;20059;-73
2021/01/12 05:08:24;;;;;;;4.65;3.60;;;;;;;5.23;100.00;100010.50;10171708;29;20036;-73
2021/01/12 05:13:27;;;;;;;5.18;3.95;;;;;;;5.25;100.00;100006.94;10179753;29;20048;-73
2021/01/12 05:18:29;;;;;;;4.53;3.72;;;;;;;5.25;100.00;99998.25;10180435;29;20554;-73
2021/01/12 05:23:46;;;;;;;4.35;3.55;;;;;;;5.25;100.00;99982.59;10178996;29;20040;-73
2021/01/12 05:28:47;;;;;;;4.75;3.30;;;;;;;5.24;100.00;99983.50;10166590;29;20055;-73
2021/01/12 05:33:49;;;;;;;4.68;3.17;;;;;;;5.28;100.00;99962.44;10196112;29;20048;-73
2021/01/12 05:38:51;;;;;;;3.70;2.50;;;;;;;5.33;100.00;99970.13;10180050;29;20576;-73
2021/01/12 05:43:55;;;;;;;6.05;3.42;;;;;;;5.42;100.00;99963.75;10193129;29;20055;-74
2021/01/12 05:48:57;;;;;;;4.75;3.30;;;;;;;5.46;100.00;99960.97;10211238;29;20111;-73
2021/01/12 05:54:04;;;;;;;5.45;3.63;;;;;;;5.50;100.00;99956.50;10179518;29;20039;-73
2021/01/12 05:59:14;;;;;;;4.50;2.60;;;;;;;5.53;100.00;99945.94;10178723;29;20048;-74
2021/01/12 06:04:16;;;;;;;3.85;2.75;;;;;;;5.58;100.00;99933.59;10179328;29;20063;-73
2021/01/12 06:09:18;;;;;;;3.85;2.70;;;;;;;5.64;100.00;99946.44;10161895;29;20453;-73
2021/01/12 06:14:27;;;;;;;3.83;2.83;;;;;;;5.61;100.00;99929.09;10178315;29;20047;-73
2021/01/12 06:19:29;;;;;;;3.70;2.75;;;;;;;5.65;100.00;99938.53;10177914;29;20140;-73
2021/01/12 06:24:40;;;;;;;3.60;2.20;;;;;;;5.71;100.00;99940.09;10177472;29;20055;-73
2021/01/12 06:29:44;;;;;;;4.38;2.28;;;;;;;5.80;100.00;99933.69;10177628;29;20115;-73
2021/01/12 06:34:45;;;;;;;3.00;1.98;;;;;;;5.80;100.00;99937.16;10177674;29;20040;-73
2021/01/12 06:39:57;;;;;;;3.20;1.83;;;;;;;5.86;100.00;99939.53;10177672;29;20051;-73
2021/01/12 06:44:59;;;;;;;3.38;2.03;;;;;;;5.88;100.00;99929.06;10181923;29;20067;-73
2021/01/12 06:50:07;;;;;;;3.53;2.10;;;;;;;6.01;100.00;99935.56;10185203;29;20405;-73
2021/01/12 06:55:09;;;;;;;3.55;2.40;;;;;;;6.01;100.00;99930.34;10177179;29;20048;-73
2021/01/12 07:00:11;;;;;;;3.63;1.70;;;;;;;6.18;100.00;99942.81;10176145;29;20051;-74
2021/01/12 07:05:14;;;;;;;3.05;1.40;;;;;;;6.19;100.00;99932.28;10176168;29;20044;-73
2021/01/12 07:10:18;;;;;;;2.53;1.38;;;;;;;6.20;100.00;99922.66;10175182;29;20052;-74
2021/01/12 07:15:19;;;;;;;2.75;1.55;;;;;;;6.21;100.00;99914.75;10173741;29;20377;-74
2021/01/12 07:20:25;;;;;;;3.13;1.42;;;;;;;6.39;100.00;99923.66;10175167;29;20040;-75
2021/01/12 07:25:31;;;;;;;3.10;1.85;;;;;;;6.37;100.00;99910.66;10174215;29;20126;-76
2021/01/12 07:30:39;;;;;;;4.78;1.40;;;;;;;6.49;100.00;99909.34;10170165;29;20430;-75
2021/01/12 07:35:40;;;;;;;3.60;2.20;;;;;;;6.45;100.00;99902.50;10157779;29;20048;-73
2021/01/12 07:40:42;;;;;;;3.65;1.55;;;;;;;6.58;100.00;99897.66;10174166;29;20432;-74
2021/01/12 07:45:48;;;;;;;3.53;1.90;;;;;;;6.72;100.00;99890.94;10171244;29;20385;-74
2021/01/12 07:50:51;;;;;;;2.85;1.45;;;;;;;6.67;100.00;99897.28;10173660;29;20051;-73
2021/01/12 07:55:53;;;;;;;4.13;2.00;;;;;;;6.67;100.00;99887.69;10184267;29;20047;-75
2021/01/12 08:00:54;;;;;;;6.90;2.55;;;;;;;6.70;100.00;99900.63;10173875;29;20507;-74
2021/01/12 08:06:08;;;;;;;3.72;2.40;;;;;;;6.75;100.00;99877.75;10174511;29;20079;-74
2021/01/12 08:11:10;;;;;;;3.47;2.30;;;;;;;6.79;100.00;99868.84;10207908;29;20043;-74
2021/01/12 08:16:12;;;;;;;2.83;1.90;;;;;;;6.82;100.00;99860.88;10157309;29;20048;-73
2021/01/12 08:21:13;;;;;;;3.90;2.70;;;;;;;6.91;100.00;99871.91;10172363;29;20056;-74
2021/01/12 08:26:14;;;;;;;3.25;2.42;;;;;;;6.95;100.00;99863.84;10172453;29;20067;-74
2021/01/12 08:31:16;;;;;;;4.47;2.10;;;;;;;6.96;100.00;99876.00;10172705;29;20044;-74
2021/01/12 08:36:20;;;;;;;3.63;2.15;;;;;;;7.03;100.00;99889.72;10172620;29;20059;-75
2021/01/12 08:41:23;;;;;;;4.25;2.40;;;;;;;6.96;100.00;99896.09;10170450;29;20063;-74
2021/01/12 08:46:29;;;;;;;3.90;2.50;;;;;;;6.96;100.00;99898.72;10210101;29;20522;-72
2021/01/12 08:51:32;;;;;;;3.03;2.33;;;;;;;6.96;100.00;99896.97;10202616;29;20043;-73
2021/01/12 08:56:33;;;;;;;3.80;2.38;;;;;;;7.04;100.00;99912.34;10192679;29;20146;-73
2021/01/12 09:01:37;;;;;;;5.30;2.30;;;;;;;7.03;100.00;99918.53;10167731;29;20036;-74
2021/01/12 09:06:39;;;;;;;4.40;2.20;;;;;;;7.10;100.00;99917.38;10180638;29;20044;-73
2021/01/12 09:11:46;;;;;;;4.90;2.22;;;;;;;7.10;100.00;99931.31;10180873;29;20111;-73
2021/01/12 09:16:47;;;;;;;5.68;2.40;;;;;;;7.08;100.00;99935.75;10180469;29;20059;-73
2021/01/12 09:21:49;;;;;;;3.28;2.20;;;;;;;7.14;100.00;99952.97;10180053;29;20051;-72
2021/01/12 09:26:59;;;;;;;3.25;2.83;;;;;;;7.20;100.00;99952.72;10180738;29;20047;-72
2021/01/12 09:32:00;;;;;;;3.72;2.22;;;;;;;7.33;100.00;99966.19;10179413;29;20052;-73
2021/01/12 09:37:02;;;;;;;4.13;2.78;;;;;;;7.30;100.00;99963.69;10162954;29;20045;-72
2021/01/12 09:42:03;;;;;;;3.70;3.13;;;;;;;7.27;100.00;99971.69;10140302;29;20501;-73
2021/01/12 09:47:04;;;;;;;4.18;3.55;;;;;;;7.29;100.00;99977.69;10216353;29;20044;-74
2021/01/12 09:52:05;;;;;;;5.38;4.68;;;;;;;7.34;100.00;99991.47;10201209;29;20505;-73
2021/01/12 09:57:07;;;;;;;12.13;9.55;;;;;;;7.35;100.00;99990.56;10179365;29;20503;-74
2021/01/12 10:02:09;;;;;;;5.50;4.03;;;;;;;7.34;100.00;100007.19;10159557;29;20068;-73
2021/01/12 10:07:10;;;;;;;6.25;5.65;;;;;;;7.30;100.00;100010.84;10178632;29;20122;-73
2021/01/12 10:12:11;;;;;;;8.20;6.90;;;;;;;7.22;100.00;100013.78;10178630;29;20044;-72
2021/01/12 10:17:13;;;;;;;9.07;5.00;;;;;;;7.29;100.00;100025.72;10137992;29;20045;-72
2021/01/12 10:22:14;;;;;;;5.50;2.80;;;;;;;7.24;100.00;100036.38;10157216;29;20044;-74
2021/01/12 10:27:15;;;;;;;4.32;2.65;;;;;;;7.24;100.00;100038.16;10159933;29;20484;-73
2021/01/12 10:32:16;;;;;;;4.38;2.00;;;;;;;7.29;100.00;100046.66;10176623;29;20063;-73
2021/01/12 10:37:18;;;;;;;4.15;2.03;;;;;;;7.33;100.00;100048.28;10174023;29;20086;-75
2021/01/12 10:42:19;;;;;;;6.18;2.70;;;;;;;7.29;100.00;100033.56;10178685;29;20084;-73
2021/01/12 10:47:21;;;;;;;5.40;2.60;;;;;;;7.43;100.00;100056.63;10181861;29;20122;-73
2021/01/12 10:52:22;;;;;;;5.32;3.10;;;;;;;7.67;100.00;100068.72;10176074;29;20051;-72
2021/01/12 10:57:23;;;;;;;6.00;2.58;;;;;;;7.84;100.00;100066.25;10163992;29;20056;-72
2021/01/12 11:02:25;;;;;;;4.82;3.20;;;;;;;7.65;100.00;100060.06;10174082;29;20476;-72
2021/01/12 11:07:26;;;;;;;5.80;2.65;;;;;;;7.57;100.00;100051.66;10176130;29;20044;-72
2021/01/12 11:12:29;;;;;;;6.55;3.25;;;;;;;7.40;100.00;100048.88;10182580;29;20040;-74
2021/01/12 11:17:30;;;;;;;7.45;2.92;;;;;;;7.22;100.00;100048.69;10175501;29;20056;-71
2021/01/12 11:22:32;;;;;;;4.70;2.75;;;;;;;7.12;100.00;100049.94;10176041;29;20044;-72
2021/01/12 11:27:34;;;;;;;6.30;3.22;;;;;;;7.10;100.00;100059.66;10170716;29;20078;-72
2021/01/12 11:32:37;;;;;;;6.05;3.47;;;;;;;6.93;100.00;100062.06;10174459;29;20055;-72
2021/01/12 11:37:39;;;;;;;4.88;3.17;;;;;;;6.75;100.00;100068.84;10175956;29;20059;-72
2021/01/12 11:42:40;;;;;;;4.05;2.90;;;;;;;6.68;100.00;100067.38;10176057;29;20055;-72
2021/01/12 11:47:41;;;;;;;8.48;3.60;;;;;;;6.59;100.00;100080.78;10169570;29;20059;-72
2021/01/12 11:52:43;;;;;;;11.43;3.25;;;;;;;6.41;100.00;100078.84;10177006;29;20047;-72
2021/01/12 11:57:44;;;;;;;4.53;2.35;;;;;;;6.30;100.00;100078.34;10205263;29;20071;-72
2021/01/12 12:02:45;;;;;;;2.67;1.50;;;;;;;6.33;100.00;100097.41;10185368;29;20480;-72
2021/01/12 12:07:46;;;;;;;2.92;1.70;;;;;;;6.37;100.00;100099.00;10204911;29;20499;-72
2021/01/12 12:12:47;;;;;;;2.33;1.45;;;;;;;6.48;100.00;100109.09;10175425;29;20044;-72
2021/01/12 12:17:48;;;;;;;4.47;2.00;;;;;;;6.40;100.00;100109.38;10173879;29;20049;-69
2021/01/12 12:22:50;;;;;;;1.98;1.40;;;;;;;6.42;100.00;100091.88;10173491;29;20048;-72
2021/01/12 12:27:51;;;;;;;2.17;1.15;;;;;;;6.33;100.00;100102.66;10174091;29;20092;-72
2021/01/12 12:32:52;;;;;;;4.18;1.50;;;;;;;6.45;100.00;100110.06;10168443;29;20043;-74
2021/01/12 12:37:53;;;;;;;4.70;2.95;;;;;;;6.86;100.00;100126.88;10169550;29;20044;-74
2021/01/12 12:42:55;;;;;;;2.80;1.60;;;;;;;6.47;100.00;100110.88;10170567;29;20815;-75
2021/01/12 12:47:56;;;;;;;6.93;2.42;;;;;;;6.45;100.00;100120.53;10143093;29;20096;-74
2021/01/12 12:52:57;;;;;;;3.80;1.92;;;;;;;6.54;100.00;100135.03;10135494;29;20048;-74
2021/01/12 12:57:58;;;;;;;5.60;2.10;;;;;;;6.53;100.00;100128.09;10148001;29;20044;-76
2021/01/12 13:03:00;;;;;;;4.57;2.13;;;;;;;6.66;100.00;100137.25;10140136;29;20044;-73
2021/01/12 13:08:01;;;;;;;7.78;4.40;;;;;;;6.84;100.00;100148.81;10173050;29;20052;-74
2021/01/12 13:13:03;;;;;;;7.88;4.97;;;;;;;7.05;100.00;100173.34;10172247;29;20104;-73
2021/01/12 13:18:13;;;;;;;4.40;2.05;;;;;;;6.04;100.00;100158.56;10169247;29;20056;-74
2021/01/12 13:23:16;;;;;;;4.10;1.30;;;;;;;5.54;100.00;100154.03;10171881;29;20055;-73
2021/01/12 13:28:18;;;;;;;4.05;0.90;;;;;;;5.66;100.00;100167.59;10154857;29;20060;-72
2021/01/12 13:33:19;;;;;;;4.47;1.23;;;;;;;5.36;100.00;100160.69;10178420;29;20055;-74
2021/01/12 13:38:20;;;;;;;3.60;1.10;;;;;;;5.57;100.00;100188.78;10178404;29;20036;-73
2021/01/12 13:43:21;;;;;;;3.72;1.20;;;;;;;5.68;100.00;100191.06;10187637;29;20060;-73
2021/01/12 13:48:23;;;;;;;4.00;1.30;;;;;;;5.67;100.00;100202.44;10203603;29;20078;-72
2021/01/12 13:53:25;;;;;;;2.20;1.10;;;;;;;6.45;100.00;100243.50;10221955;29;20040;-72
2021/01/12 13:58:28;;;;;;;3.95;1.10;;;;;;;7.68;100.00;100311.66;10179005;29;20493;-72
2021/01/12 14:03:30;;;;;;;5.68;2.10;;;;;;;8.14;100.00;100318.59;10177350;29;20046;-73
2021/01/12 14:08:31;;;;;;;4.35;1.13;;;;;;;7.84;100.00;100297.03;10161283;29;20052;-72
2021/01/12 14:13:32;;;;;;;5.68;1.50;;;;;;;5.95;100.00;100239.03;10177582;29;20048;-73
2021/01/12 14:18:34;;;;;;;6.88;2.00;;;;;;;5.41;100.00;100236.31;10177834;29;20044;-71
2021/01/12 14:23:37;;;;;;;2.40;1.20;;;;;;;5.25;100.00;100251.56;10177313;29;20500;-73
2021/01/12 14:28:38;;;;;;;4.00;1.70;;;;;;;5.09;100.00;100251.16;10176317;29;20044;-73
2021/01/12 14:33:40;;;;;;;6.30;1.33;;;;;;;5.27;100.00;100265.44;10176879;29;20048;-73
2021/01/12 14:39:03;;;;;;;5.07;1.48;;;;;;;5.61;100.00;100304.50;10174205;29;20481;-73
2021/01/12 14:44:05;;;;;;;5.82;1.60;;;;;;;5.31;100.00;100295.78;10190381;29;20400;-72
2021/01/12 14:49:06;;;;;;;6.25;2.03;;;;;;;5.09;100.00;100294.66;10214594;29;20048;-73
2021/01/12 14:54:09;;;;;;;3.88;1.38;;;;;;;4.89;100.00;100303.03;10186262;29;20051;-74
2021/01/12 14:59:10;;;;;;;4.38;1.90;;;;;;;4.57;100.00;100306.44;10176618;29;20056;-74
2021/01/12 15:04:12;;;;;;;13.73;6.32;;;;;;;4.34;100.00;100312.22;10187608;29;20070;-74
2021/01/12 15:09:13;;;;;;;8.32;2.60;;;;;;;4.09;100.00;100298.91;10215272;29;20491;-75
2021/01/12 15:14:14;;;;;;;5.72;3.17;;;;;;;3.90;100.00;100310.63;10184124;29;20053;-75
2021/01/12 15:19:17;;;;;;;6.70;3.58;;;;;;;3.77;100.00;100306.53;10120507;29;20044;-76
2021/01/12 15:24:18;;;;;;;5.70;1.58;;;;;;;3.73;100.00;100321.41;10141659;29;20040;-74
2021/01/12 15:29:19;;;;;;;5.75;1.80;;;;;;;3.61;100.00;100326.00;10173370;29;20465;-74
2021/01/12 15:34:20;;;;;;;4.65;1.63;;;;;;;3.45;100.00;100333.25;10174392;29;20119;-73
2021/01/12 15:39:21;;;;;;;17.23;6.85;;;;;;;3.33;100.00;100338.72;10191576;29;20051;-74
2021/01/12 15:44:24;;;;;;;58.15;31.33;;;;;;;3.25;100.00;100341.47;10211625;29;20060;-73
2021/01/12 15:49:25;;;;;;;40.47;22.77;;;;;;;3.27;100.00;100347.47;10160135;29;20044;-73
2021/01/12 15:54:26;;;;;;;10.60;4.05;;;;;;;3.26;100.00;100353.59;10181483;29;20099;-74
2021/01/12 15:59:28;;;;;;;7.30;2.40;;;;;;;3.25;100.00;100372.69;10156855;29;20123;-74
2021/01/12 16:04:31;;;;;;;8.80;3.63;;;;;;;3.21;100.00;100362.34;10158292;29;20524;-73
2021/01/12 16:09:32;;;;;;;9.63;3.83;;;;;;;3.17;100.00;100371.97;10174369;29;20536;-77
2021/01/12 16:14:34;;;;;;;8.43;3.88;;;;;;;3.02;100.00;100361.81;10156852;29;20075;-73
2021/01/12 16:19:37;;;;;;;11.02;5.05;;;;;;;3.09;100.00;100378.22;10157094;29;20143;-75
2021/01/12 16:24:41;;;;;;;14.15;4.65;;;;;;;3.01;100.00;100380.94;10157846;29;20056;-75
2021/01/12 16:29:46;;;;;;;13.10;4.50;;;;;;;3.08;100.00;100390.38;10156654;29;20055;-75
2021/01/12 16:34:48;;;;;;;10.65;4.05;;;;;;;2.98;100.00;100388.78;10170153;29;20036;-74
2021/01/12 16:39:53;;;;;;;6.50;2.35;;;;;;;3.21;100.00;100409.22;10174276;29;20477;-74
2021/01/12 16:45:00;;;;;;;10.45;3.40;;;;;;;3.39;100.00;100416.69;10178259;29;20107;-76
2021/01/12 16:50:21;;;;;;;9.45;3.25;;;;;;;3.50;100.00;100417.38;10186304;29;20051;-75
2021/01/12 16:55:45;;;;;;;8.80;2.60;;;;;;;3.47;100.00;100420.03;10172714;29;20079;-73
2021/01/12 17:00:49;;;;;;;;;;;;;;;3.38;100.00;100422.78;10170888;29;20051;-73
2021/01/12 17:05:52;;;;;;;8.88;3.42;;;;;;;3.16;100.00;100404.09;10179318;29;19958;-74
2021/01/12 17:11:03;;;;;;;8.35;2.50;;;;;;;3.35;100.00;100435.84;10164087;29;20052;-74
2021/01/12 17:16:10;;;;;;;6.35;2.20;;;;;;;3.42;100.00;100427.06;10164755;29;20064;-74
2021/01/12 17:21:12;;;;;;;7.93;2.70;;;;;;;3.32;100.00;100421.16;10163861;29;20444;-74
2021/01/12 17:26:19;;;;;;;6.10;2.45;;;;;;;3.33;100.00;100435.91;10162125;29;20139;-75
2021/01/12 17:31:27;;;;;;;12.38;2.75;;;;;;;3.43;100.00;100453.06;10163325;29;20048;-75
2021/01/12 17:36:44;;;;;;;11.70;4.63;;;;;;;3.44;100.00;100473.00;10163571;29;20568;-74
2021/01/12 17:42:06;;;;;;;17.10;7.30;;;;;;;3.45;100.00;100479.09;10160305;29;20130;-75
2021/01/12 17:47:13;;;;;;;14.98;3.85;;;;;;;3.52;100.00;100485.03;10162027;29;20072;-75
2021/01/12 17:52:21;;;;;;;12.35;3.08;;;;;;;3.41;100.00;100485.25;10156230;29;20053;-75
2021/01/12 17:57:35;;;;;;;9.93;2.75;;;;;;;3.26;100.00;100504.59;10138764;29;20131;-75
2021/01/12 18:02:37;;;;;;;12.57;2.97;;;;;;;3.29;100.00;100521.88;10156059;29;20465;-75
2021/01/12 18:07:56;;;;;;;8.18;2.22;;;;;;;3.17;100.00;100530.75;10161221;29;20496;-75
2021/01/12 18:13:03;;;;;;;9.55;3.80;;;;;;;2.99;100.00;100537.09;10161748;29;20461;-75
2021/01/12 18:18:07;;;;;;;20.98;8.00;;;;;;;2.80;100.00;100551.22;10159279;29;20060;-76
2021/01/12 18:23:11;;;;;;;29.75;15.45;;;;;;;2.97;100.00;100574.41;10161163;29;20099;-75
2021/01/12 18:28:20;;;;;;;10.00;4.10;;;;;;;2.81;100.00;100570.31;10160488;29;20056;-75
2021/01/12 18:33:23;;;;;;;10.77;5.28;;;;;;;2.77;100.00;100592.03;10149454;29;20057;-75
2021/01/12 18:38:32;;;;;;;16.80;8.95;;;;;;;2.75;100.00;100612.00;10121515;29;20064;-75
2021/01/12 18:43:42;;;;;;;21.17;10.00;;;;;;;2.70;100.00;100616.38;10156330;29;20995;-74
2021/01/12 18:48:44;;;;;;;26.30;15.70;;;;;;;2.52;100.00;100615.72;10165553;29;20048;-74
2021/01/12 18:53:47;;;;;;;17.20;8.45;;;;;;;2.59;100.00;100638.22;10175524;29;20048;-74
2021/01/12 18:58:49;;;;;;;18.70;8.40;;;;;;;2.44;100.00;100624.50;10176137;29;20121;-74
2021/01/12 19:03:54;;;;;;;15.15;6.88;;;;;;;2.41;100.00;100643.59;10158937;29;20060;-73
2021/01/12 19:08:58;;;;;;;11.15;4.00;;;;;;;2.29;100.00;100644.56;10157676;29;20086;-74
2021/01/12 19:13:59;;;;;;;12.75;6.93;;;;;;;2.15;100.00;100646.47;10173618;29;20123;-73
2021/01/12 19:19:02;;;;;;;6.90;3.33;;;;;;;2.10;100.00;100662.94;10173332;29;20087;-74
2021/01/12 19:24:03;;;;;;;12.60;4.10;;;;;;;1.93;100.00;100657.91;10176672;29;20044;-74
2021/01/12 19:29:05;;;;;;;12.48;4.05;;;;;;;2.02;100.00;100677.75;10173877;29;20036;-74
2021/01/12 19:34:06;;;;;;;11.18;5.28;;;;;;;2.01;100.00;100683.84;10172989;29;20062;-74
2021/01/12 19:39:08;;;;;;;13.27;5.32;;;;;;;1.99;100.00;100696.84;10192574;29;20516;-73
2021/01/12 19:44:12;;;;;;;19.92;7.40;;;;;;;1.95;100.00;100691.66;10176185;29;20048;-74
2021/01/12 19:49:13;;;;;;;15.98;6.97;;;;;;;1.87;100.00;100686.53;10172826;29;20113;-73
2021/01/12 19:54:17;;;;;;;17.20;7.80;;;;;;;1.80;100.00;100703.91;10174874;29;20048;-73
2021/01/12 19:59:19;;;;;;;18.13;8.65;;;;;;;1.85;100.00;100703.84;10174321;29;20477;-73
2021/01/12 20:04:21;;;;;;;12.50;4.57;;;;;;;1.83;100.00;100723.81;10173939;29;20143;-73
2021/01/12 20:09:23;;;;;;;8.63;3.45;;;;;;;1.92;100.00;100741.94;10173531;29;20120;-73
2021/01/12 20:14:25;;;;;;;7.45;3.05;;;;;;;1.98;100.00;100757.47;10153840;29;20055;-73
2021/01/12 20:19:28;;;;;;;11.93;4.50;;;;;;;2.08;100.00;100768.66;10173317;29;20508;-74
2021/01/12 20:24:31;;;;;;;12.10;5.43;;;;;;;2.21;100.00;100791.94;10157956;29;20048;-73
2021/01/12 20:29:34;;;;;;;14.00;4.70;;;;;;;2.23;100.00;100794.53;10174502;29;20047;-73
2021/01/12 20:34:35;;;;;;;16.17;5.50;;;;;;;2.21;100.00;100791.06;10155581;29;20095;-73
2021/01/12 20:39:37;;;;;;;12.32;4.60;;;;;;;2.10;100.00;100793.75;10154620;29;20040;-73
2021/01/12 20:44:40;;;;;;;16.60;4.20;;;;;;;2.12;100.00;100809.31;10182397;29;20485;-73
2021/01/12 20:49:42;;;;;;;14.35;4.13;;;;;;;2.00;100.00;100792.09;10177256;29;20044;-74
2021/01/12 20:54:43;;;;;;;15.23;5.20;;;;;;;1.99;100.00;100815.47;10179322;29;20040;-74
2021/01/12 20:59:44;;;;;;;9.20;4.57;;;;;;;1.91;100.00;100805.13;10170973;29;20076;-74
2021/01/12 21:04:45;;;;;;;8.07;4.10;;;;;;;1.82;100.00;100800.84;10180756;29;20048;-73
2021/01/12 21:09:46;;;;;;;12.15;4.20;;;;;;;1.93;100.00;100818.97;10179637;29;20040;-73
2021/01/12 21:14:47;;;;;;;12.43;5.22;;;;;;;1.90;100.00;100825.06;10181095;29;20425;-73
2021/01/12 21:19:49;;;;;;;11.73;3.60;;;;;;;1.93;100.00;100829.34;10176912;29;20496;-73
2021/01/12 21:24:50;;;;;;;10.43;4.28;;;;;;;1.79;100.00;100829.44;10180711;29;20040;-73
2021/01/12 21:29:51;;;;;;;11.85;4.40;;;;;;;1.80;100.00;100835.50;10178256;29;20043;-74
2021/01/12 21:34:52;;;;;;;14.02;4.65;;;;;;;1.80;100.00;100845.88;10177751;29;20393;-74
2021/01/12 21:39:53;;;;;;;17.48;4.93;;;;;;;1.87;100.00;100858.84;10172023;29;20500;-74
2021/01/12 21:44:56;;;;;;;9.15;4.22;;;;;;;1.82;100.00;100849.34;10177753;29;20836;-73
2021/01/12 21:49:57;;;;;;;11.00;4.30;;;;;;;1.84;100.00;100860.59;10179950;29;20052;-74
2021/01/12 21:54:58;;;;;;;12.23;5.60;;;;;;;1.87;100.00;100870.94;10180082;29;20429;-73
2021/01/12 21:59:59;;;;;;;13.65;5.53;;;;;;;1.84;100.00;100877.00;10163194;29;20056;-73
2021/01/12 22:05:00;;;;;;;9.82;5.72;;;;;;;1.78;100.00;100873.59;10179856;29;20048;-73
2021/01/12 22:10:03;;;;;;;10.93;5.20;;;;;;;1.72;100.00;100871.88;10137313;29;20045;-73
2021/01/12 22:15:05;;;;;;;9.80;4.88;;;;;;;1.75;100.00;100876.22;10140262;29;20045;-73
2021/01/12 22:20:07;;;;;;;13.57;5.90;;;;;;;1.85;100.00;100896.94;10142077;29;20036;-73
2021/01/12 22:25:09;;;;;;;19.83;5.88;;;;;;;1.77;100.00;100901.28;10178850;29;20480;-73
2021/01/12 22:30:11;;;;;;;14.07;6.03;;;;;;;1.60;100.00;100889.22;10178086;29;20377;-73
2021/01/12 22:35:12;;;;;;;11.70;6.43;;;;;;;1.52;100.00;100892.72;10196538;29;20048;-74
2021/01/12 22:40:15;;;;;;;13.73;6.80;;;;;;;1.52;100.00;100902.25;10178087;29;20055;-74
2021/01/12 22:45:16;;;;;;;20.85;6.85;;;;;;;1.58;100.00;100906.56;10177921;29;20044;-73
2021/01/12 22:50:17;;;;;;;15.80;6.90;;;;;;;1.57;100.00;100915.22;10197337;29;20040;-73
2021/01/12 22:55:18;;;;;;;16.17;6.93;;;;;;;1.46;100.00;100908.31;10183773;29;20040;-73
2021/01/12 23:00:22;;;;;;;15.23;7.93;;;;;;;1.47;100.00;100917.84;10177547;29;20059;-74
2021/01/12 23:05:26;;;;;;;14.25;7.55;;;;;;;1.47;100.00;100925.63;10159215;29;20135;-74